createdAt,value
2018-03-15T00:00:01.850Z,85.94
2018-03-15T00:01:01.937Z,86.79
2018-03-15T00:02:02.026Z,86.60
2018-03-15T00:03:02.119Z,86.51
2018-03-15T00:04:02.194Z,86.60
2018-03-15T00:05:02.282Z,86.41
2018-03-15T00:06:02.368Z,86.22
2018-03-15T00:07:02.463Z,85.94
2018-03-15T00:08:02.552Z,85.66
2018-03-15T00:09:02.640Z,85.94
2018-03-15T00:10:02.725Z,86.04
2018-03-15T00:11:02.817Z,86.79
2018-03-15T00:12:02.904Z,86.51
2018-03-15T00:13:02.995Z,86.22
2018-03-15T00:14:03.082Z,86.41
2018-03-15T00:15:03.175Z,86.41
2018-03-15T00:16:03.260Z,86.22
2018-03-15T00:17:03.353Z,86.98
2018-03-15T00:18:03.441Z,86.22
2018-03-15T00:19:03.533Z,86.41
2018-03-15T00:20:03.650Z,86.41
2018-03-15T00:21:03.705Z,85.47
2018-03-15T00:22:03.789Z,86.51
2018-03-15T00:23:03.892Z,86.60
2018-03-15T00:24:03.978Z,86.22
2018-03-15T00:25:04.069Z,86.79
2018-03-15T00:26:04.156Z,85.94
2018-03-15T00:27:04.245Z,86.51
2018-03-15T00:28:04.333Z,86.32
2018-03-15T00:29:04.465Z,86.22
2018-03-15T00:30:04.511Z,86.60
2018-03-15T00:31:04.601Z,86.70
2018-03-15T00:32:04.689Z,86.32
2018-03-15T00:33:04.778Z,86.79
2018-03-15T00:34:04.864Z,86.60
2018-03-15T00:35:04.954Z,86.60
2018-03-15T00:36:05.039Z,86.60
2018-03-15T00:37:05.130Z,86.98
2018-03-15T00:38:05.222Z,87.04
2018-03-15T00:39:05.303Z,87.60
2018-03-15T00:40:05.401Z,87.74
2018-03-15T00:41:05.483Z,87.17
2018-03-15T00:42:05.574Z,86.98
2018-03-15T00:43:05.670Z,86.79
2018-03-15T00:44:05.756Z,86.89
2018-03-15T00:45:05.845Z,86.79
2018-03-15T00:46:05.931Z,86.70
2018-03-15T00:47:06.025Z,86.22
2018-03-15T00:48:06.128Z,86.41
2018-03-15T00:49:06.215Z,86.60
2018-03-15T00:50:06.304Z,86.51
2018-03-15T00:51:06.387Z,86.22
2018-03-15T00:52:06.477Z,86.70
2018-03-15T00:53:06.566Z,86.60
2018-03-15T00:54:06.656Z,86.22
2018-03-15T00:55:06.743Z,86.22
2018-03-15T00:56:06.833Z,86.04
2018-03-15T00:57:06.923Z,85.57
2018-03-15T00:58:07.011Z,86.18
2018-03-15T00:59:07.099Z,86.09
2018-03-15T01:00:07.188Z,86.04
2018-03-15T01:01:07.270Z,85.42
2018-03-15T01:02:07.364Z,86.09
2018-03-15T01:03:07.445Z,86.47
2018-03-15T01:04:07.548Z,86.28
2018-03-15T01:05:07.626Z,85.94
2018-03-15T01:06:07.716Z,86.37
2018-03-15T01:07:07.811Z,86.89
2018-03-15T01:08:07.899Z,86.22
2018-03-15T01:09:07.990Z,86.18
2018-03-15T01:10:08.074Z,86.04
2018-03-15T01:11:08.163Z,85.42
2018-03-15T01:12:08.250Z,85.61
2018-03-15T01:13:08.338Z,85.61
2018-03-15T01:14:08.429Z,85.90
2018-03-15T01:15:08.512Z,85.80
2018-03-15T01:16:08.598Z,85.52
2018-03-15T01:17:08.687Z,85.42
2018-03-15T01:18:08.778Z,85.52
2018-03-15T01:19:08.875Z,86.04
2018-03-15T01:20:08.962Z,85.52
2018-03-15T01:21:09.048Z,85.90
2018-03-15T01:22:09.138Z,85.99
2018-03-15T01:23:09.227Z,85.80
2018-03-15T01:24:09.314Z,86.47
2018-03-15T01:25:09.405Z,86.18
2018-03-15T01:26:09.489Z,86.18
2018-03-15T01:27:09.575Z,86.75
2018-03-15T01:28:09.664Z,85.99
2018-03-15T01:29:09.752Z,85.99
2018-03-15T01:30:09.840Z,86.28
2018-03-15T01:31:09.927Z,86.47
2018-03-15T01:32:10.009Z,85.71
2018-03-15T01:33:10.098Z,86.75
2018-03-15T01:34:10.233Z,87.32
2018-03-15T01:35:10.278Z,87.60
2018-03-15T01:36:10.366Z,87.41
2018-03-15T01:37:10.458Z,87.23
2018-03-15T01:38:10.534Z,87.51
2018-03-15T01:39:10.623Z,87.32
2018-03-15T01:40:10.712Z,87.60
2018-03-15T01:41:10.800Z,87.51
2018-03-15T01:42:10.888Z,87.32
2018-03-15T01:43:10.972Z,87.32
2018-03-15T01:44:11.063Z,87.32
2018-03-15T01:45:11.158Z,87.32
2018-03-15T01:46:11.240Z,87.60
2018-03-15T01:47:11.326Z,87.51
2018-03-15T01:48:11.419Z,87.79
2018-03-15T01:49:11.520Z,87.41
2018-03-15T01:50:11.584Z,87.32
2018-03-15T01:51:11.673Z,87.60
2018-03-15T01:52:11.765Z,87.79
2018-03-15T01:53:11.855Z,87.98
2018-03-15T01:54:11.945Z,87.98
2018-03-15T01:55:12.034Z,87.60
2018-03-15T01:56:12.130Z,87.60
2018-03-15T01:57:12.215Z,87.41
2018-03-15T01:58:12.308Z,87.51
2018-03-15T01:59:12.506Z,86.94
2018-03-15T02:00:12.489Z,87.41
2018-03-15T02:01:12.576Z,87.32
2018-03-15T02:02:12.661Z,87.79
2018-03-15T02:03:12.758Z,87.70
2018-03-15T02:04:12.840Z,87.04
2018-03-15T02:05:12.927Z,87.32
2018-03-15T02:06:13.021Z,87.41
2018-03-15T02:07:13.112Z,87.41
2018-03-15T02:08:13.204Z,87.23
2018-03-15T02:09:13.281Z,87.41
2018-03-15T02:10:13.373Z,87.98
2018-03-15T02:11:13.460Z,88.36
2018-03-15T02:12:13.550Z,88.93
2018-03-15T02:13:13.644Z,88.83
2018-03-15T02:14:13.733Z,88.93
2018-03-15T02:15:13.823Z,89.02
2018-03-15T02:16:13.913Z,88.55
2018-03-15T02:17:13.995Z,88.93
2018-03-15T02:18:14.086Z,88.55
2018-03-15T02:19:14.172Z,89.02
2018-03-15T02:20:14.261Z,88.55
2018-03-15T02:21:14.366Z,88.17
2018-03-15T02:22:14.458Z,87.79
2018-03-15T02:23:14.544Z,87.98
2018-03-15T02:24:14.632Z,88.17
2018-03-15T02:25:14.721Z,88.64
2018-03-15T02:26:14.808Z,88.26
2018-03-15T02:27:14.895Z,89.02
2018-03-15T02:28:14.988Z,88.26
2018-03-15T02:29:15.075Z,87.98
2018-03-15T02:30:15.164Z,87.98
2018-03-15T02:31:15.247Z,87.98
2018-03-15T02:32:15.334Z,87.51
2018-03-15T02:33:15.428Z,86.75
2018-03-15T02:34:15.511Z,86.56
2018-03-15T02:35:15.599Z,86.75
2018-03-15T02:36:15.691Z,86.37
2018-03-15T02:37:15.774Z,85.90
2018-03-15T02:38:15.859Z,85.61
2018-03-15T02:39:15.948Z,85.80
2018-03-15T02:40:16.036Z,85.33
2018-03-15T02:41:16.130Z,85.52
2018-03-15T02:42:16.225Z,84.95
2018-03-15T02:43:16.306Z,84.86
2018-03-15T02:44:16.395Z,85.71
2018-03-15T02:45:16.484Z,85.90
2018-03-15T02:46:16.570Z,85.33
2018-03-15T02:47:16.657Z,85.61
2018-03-15T02:48:16.745Z,85.05
2018-03-15T02:49:16.833Z,84.95
2018-03-15T02:50:16.922Z,84.77
2018-03-15T02:51:17.009Z,85.05
2018-03-15T02:52:17.101Z,84.77
2018-03-15T02:53:17.190Z,84.39
2018-03-15T02:54:17.278Z,84.86
2018-03-15T02:55:17.367Z,84.77
2018-03-15T02:56:17.452Z,84.67
2018-03-15T02:57:17.546Z,85.14
2018-03-15T02:58:17.632Z,84.67
2018-03-15T02:59:17.721Z,84.77
2018-03-15T03:00:17.823Z,84.48
2018-03-15T03:01:17.899Z,85.14
2018-03-15T03:02:17.995Z,84.95
2018-03-15T03:03:18.073Z,84.77
2018-03-15T03:04:18.160Z,85.33
2018-03-15T03:05:18.254Z,85.52
2018-03-15T03:06:18.339Z,84.95
2018-03-15T03:07:18.434Z,86.09
2018-03-15T03:08:18.516Z,85.99
2018-03-15T03:09:18.605Z,85.24
2018-03-15T03:10:18.693Z,85.24
2018-03-15T03:11:18.773Z,85.61
2018-03-15T03:12:18.864Z,85.71
2018-03-15T03:13:18.951Z,85.52
2018-03-15T03:14:19.044Z,85.80
2018-03-15T03:15:19.136Z,85.71
2018-03-15T03:16:19.222Z,85.80
2018-03-15T03:17:19.320Z,85.52
2018-03-15T03:18:19.406Z,85.52
2018-03-15T03:19:19.496Z,86.09
2018-03-15T03:20:19.584Z,86.09
2018-03-15T03:21:19.671Z,86.18
2018-03-15T03:22:19.763Z,86.47
2018-03-15T03:23:19.859Z,86.75
2018-03-15T03:24:19.946Z,86.28
2018-03-15T03:25:20.035Z,85.99
2018-03-15T03:26:20.128Z,86.66
2018-03-15T03:27:20.215Z,86.37
2018-03-15T03:28:20.306Z,86.85
2018-03-15T03:29:20.393Z,86.66
2018-03-15T03:30:20.481Z,86.75
2018-03-15T03:31:20.570Z,86.75
2018-03-15T03:32:20.655Z,86.56
2018-03-15T03:33:20.747Z,86.37
2018-03-15T03:34:20.835Z,86.37
2018-03-15T03:35:20.921Z,86.28
2018-03-15T03:36:21.015Z,85.99
2018-03-15T03:37:21.101Z,85.80
2018-03-15T03:38:21.188Z,86.09
2018-03-15T03:39:21.278Z,86.09
2018-03-15T03:40:21.366Z,86.37
2018-03-15T03:41:21.454Z,86.18
2018-03-15T03:42:21.534Z,86.66
2018-03-15T03:43:21.627Z,86.47
2018-03-15T03:44:21.716Z,86.47
2018-03-15T03:45:21.806Z,86.28
2018-03-15T03:46:21.897Z,86.66
2018-03-15T03:47:21.976Z,86.66
2018-03-15T03:48:22.066Z,86.37
2018-03-15T03:49:22.147Z,86.37
2018-03-15T03:50:22.238Z,86.37
2018-03-15T03:51:22.322Z,86.75
2018-03-15T03:52:22.414Z,86.47
2018-03-15T03:53:22.507Z,86.75
2018-03-15T03:54:22.604Z,86.94
2018-03-15T03:55:22.693Z,86.75
2018-03-15T03:56:22.780Z,86.85
2018-03-15T03:57:22.869Z,86.56
2018-03-15T03:58:22.957Z,86.18
2018-03-15T03:59:23.044Z,86.66
2018-03-15T04:00:23.132Z,86.66
2018-03-15T04:01:23.221Z,86.56
2018-03-15T04:02:23.307Z,85.99
2018-03-15T04:03:23.451Z,86.18
2018-03-15T04:04:23.482Z,85.80
2018-03-15T04:05:23.571Z,86.66
2018-03-15T04:06:23.663Z,86.94
2018-03-15T04:07:23.755Z,87.13
2018-03-15T04:08:23.829Z,87.23
2018-03-15T04:09:23.917Z,87.32
2018-03-15T04:10:24.004Z,87.70
2018-03-15T04:11:24.096Z,87.23
2018-03-15T04:12:24.173Z,87.13
2018-03-15T04:13:24.262Z,87.13
2018-03-15T04:14:24.355Z,87.04
2018-03-15T04:15:24.444Z,86.85
2018-03-15T04:16:24.529Z,87.04
2018-03-15T04:17:24.623Z,87.04
2018-03-15T04:18:24.716Z,87.04
2018-03-15T04:19:24.805Z,86.66
2018-03-15T04:20:24.893Z,86.94
2018-03-15T04:21:24.981Z,86.75
2018-03-15T04:22:25.068Z,87.04
2018-03-15T04:23:25.154Z,86.94
2018-03-15T04:24:25.250Z,86.85
2018-03-15T04:25:25.345Z,86.99
2018-03-15T04:26:25.436Z,87.27
2018-03-15T04:27:25.532Z,87.23
2018-03-15T04:28:25.664Z,87.32
2018-03-15T04:29:25.711Z,87.04
2018-03-15T04:30:25.787Z,86.75
2018-03-15T04:31:25.878Z,86.75
2018-03-15T04:32:25.977Z,86.33
2018-03-15T04:33:26.057Z,86.85
2018-03-15T04:34:26.150Z,86.47
2018-03-15T04:35:26.236Z,86.56
2018-03-15T04:36:26.320Z,86.71
2018-03-15T04:37:26.406Z,86.75
2018-03-15T04:38:26.488Z,86.56
2018-03-15T04:39:26.579Z,86.42
2018-03-15T04:40:26.668Z,86.52
2018-03-15T04:41:26.758Z,86.61
2018-03-15T04:42:26.848Z,86.80
2018-03-15T04:43:26.933Z,86.90
2018-03-15T04:44:27.008Z,86.61
2018-03-15T04:45:27.097Z,86.85
2018-03-15T04:46:27.186Z,86.33
2018-03-15T04:47:27.284Z,86.56
2018-03-15T04:48:27.374Z,86.37
2018-03-15T04:49:27.451Z,86.14
2018-03-15T04:50:27.538Z,86.14
2018-03-15T04:51:27.630Z,86.14
2018-03-15T04:52:27.718Z,86.04
2018-03-15T04:53:27.811Z,86.33
2018-03-15T04:54:27.898Z,86.33
2018-03-15T04:55:27.986Z,86.71
2018-03-15T04:56:28.093Z,86.23
2018-03-15T04:57:28.186Z,86.33
2018-03-15T04:58:28.303Z,86.52
2018-03-15T04:59:28.347Z,86.33
2018-03-15T05:00:28.435Z,86.23
2018-03-15T05:01:28.524Z,86.33
2018-03-15T05:02:28.614Z,86.14
2018-03-15T05:03:28.703Z,86.52
2018-03-15T05:04:28.788Z,86.52
2018-03-15T05:05:28.881Z,86.80
2018-03-15T05:06:28.973Z,86.80
2018-03-15T05:07:29.063Z,86.71
2018-03-15T05:08:29.150Z,86.71
2018-03-15T05:09:29.232Z,86.80
2018-03-15T05:10:29.331Z,86.99
2018-03-15T05:11:29.422Z,86.99
2018-03-15T05:12:29.513Z,86.80
2018-03-15T05:13:29.601Z,87.08
2018-03-15T05:14:29.687Z,86.99
2018-03-15T05:15:29.780Z,87.18
2018-03-15T05:16:29.867Z,87.37
2018-03-15T05:17:29.957Z,87.18
2018-03-15T05:18:30.044Z,86.90
2018-03-15T05:19:30.125Z,86.99
2018-03-15T05:20:30.215Z,86.90
2018-03-15T05:21:30.303Z,86.71
2018-03-15T05:22:30.392Z,86.66
2018-03-15T05:23:30.481Z,86.61
2018-03-15T05:24:30.570Z,86.52
2018-03-15T05:25:30.665Z,86.52
2018-03-15T05:26:30.744Z,86.23
2018-03-15T05:27:30.839Z,86.71
2018-03-15T05:28:30.925Z,86.14
2018-03-15T05:29:31.014Z,86.23
2018-03-15T05:30:31.105Z,86.42
2018-03-15T05:31:31.187Z,86.52
2018-03-15T05:32:31.276Z,86.52
2018-03-15T05:33:31.366Z,86.80
2018-03-15T05:34:31.453Z,86.71
2018-03-15T05:35:31.541Z,86.33
2018-03-15T05:36:31.628Z,86.14
2018-03-15T05:37:31.715Z,85.57
2018-03-15T05:38:31.803Z,85.57
2018-03-15T05:39:31.890Z,85.95
2018-03-15T05:40:31.979Z,85.57
2018-03-15T05:41:32.064Z,85.66
2018-03-15T05:42:32.157Z,85.57
2018-03-15T05:43:32.242Z,85.38
2018-03-15T05:44:32.336Z,85.66
2018-03-15T05:45:32.421Z,85.57
2018-03-15T05:46:32.500Z,85.85
2018-03-15T05:47:32.607Z,85.95
2018-03-15T05:48:32.694Z,85.76
2018-03-15T05:49:32.782Z,85.76
2018-03-15T05:50:32.872Z,85.66
2018-03-15T05:51:32.954Z,85.57
2018-03-15T05:52:33.047Z,85.47
2018-03-15T05:53:33.131Z,85.47
2018-03-15T05:54:33.223Z,85.71
2018-03-15T05:55:33.299Z,85.85
2018-03-15T05:56:33.374Z,86.09
2018-03-15T05:57:33.464Z,85.38
2018-03-15T05:58:33.549Z,85.85
2018-03-15T05:59:33.640Z,85.57
2018-03-15T06:00:33.731Z,86.14
2018-03-15T06:01:33.820Z,86.71
2018-03-15T06:02:33.908Z,86.52
2018-03-15T06:03:33.994Z,86.23
2018-03-15T06:04:34.089Z,86.90
2018-03-15T06:05:34.179Z,87.46
2018-03-15T06:06:34.268Z,87.27
2018-03-15T06:07:34.396Z,87.08
2018-03-15T06:08:34.446Z,87.08
2018-03-15T06:09:34.535Z,87.27
2018-03-15T06:10:34.622Z,87.46
2018-03-15T06:11:34.711Z,87.84
2018-03-15T06:12:34.797Z,87.37
2018-03-15T06:13:34.889Z,87.27
2018-03-15T06:14:34.977Z,87.55
2018-03-15T06:15:35.067Z,87.65
2018-03-15T06:16:35.154Z,87.55
2018-03-15T06:17:35.232Z,87.74
2018-03-15T06:18:35.324Z,88.03
2018-03-15T06:19:35.418Z,88.55
2018-03-15T06:20:35.502Z,88.17
2018-03-15T06:21:35.589Z,88.45
2018-03-15T06:22:35.679Z,88.36
2018-03-15T06:23:35.767Z,88.07
2018-03-15T06:24:35.857Z,87.79
2018-03-15T06:25:35.950Z,87.32
2018-03-15T06:26:36.044Z,87.41
2018-03-15T06:27:36.135Z,87.13
2018-03-15T06:28:36.224Z,87.32
2018-03-15T06:29:36.320Z,87.32
2018-03-15T06:30:36.410Z,87.41
2018-03-15T06:31:36.500Z,87.98
2018-03-15T06:32:36.586Z,87.41
2018-03-15T06:33:36.675Z,87.51
2018-03-15T06:34:36.762Z,86.75
2018-03-15T06:35:36.852Z,86.66
2018-03-15T06:36:36.941Z,86.66
2018-03-15T06:37:37.042Z,86.41
2018-03-15T06:38:37.120Z,86.41
2018-03-15T06:39:37.214Z,85.85
2018-03-15T06:40:37.303Z,85.75
2018-03-15T06:41:37.387Z,85.38
2018-03-15T06:42:37.469Z,86.08
2018-03-15T06:43:37.554Z,85.42
2018-03-15T06:44:37.641Z,85.23
2018-03-15T06:45:37.734Z,84.47
2018-03-15T06:46:37.824Z,84.00
2018-03-15T06:47:37.912Z,83.56
2018-03-15T06:48:38.004Z,83.37
2018-03-15T06:49:38.092Z,82.71
2018-03-15T06:50:38.181Z,83.00
2018-03-15T06:51:38.286Z,82.62
2018-03-15T06:52:38.395Z,82.24
2018-03-15T06:53:38.481Z,82.05
2018-03-15T06:54:38.570Z,82.05
2018-03-15T06:55:38.661Z,81.86
2018-03-15T06:56:38.750Z,81.38
2018-03-15T06:57:38.844Z,81.86
2018-03-15T06:58:38.932Z,81.14
2018-03-15T06:59:39.028Z,80.38
2018-03-15T07:00:39.119Z,79.72
2018-03-15T07:01:39.200Z,79.25
2018-03-15T07:02:39.287Z,78.77
2018-03-15T07:03:39.376Z,78.24
2018-03-15T07:04:39.465Z,78.05
2018-03-15T07:05:39.559Z,77.48
2018-03-15T07:06:39.649Z,76.73
2018-03-15T07:07:39.745Z,76.54
2018-03-15T07:08:39.835Z,76.92
2018-03-15T07:09:39.926Z,76.15
2018-03-15T07:10:40.017Z,75.49
2018-03-15T07:11:40.108Z,75.78
2018-03-15T07:12:40.198Z,76.15
2018-03-15T07:13:40.287Z,76.06
2018-03-15T07:14:40.380Z,76.44
2018-03-15T07:15:40.521Z,76.15
2018-03-15T07:16:40.567Z,76.34
2018-03-15T07:17:40.657Z,75.68
2018-03-15T07:18:40.749Z,75.96
2018-03-15T07:19:40.843Z,75.78
2018-03-15T07:20:40.923Z,75.68
2018-03-15T07:21:41.010Z,75.21
2018-03-15T07:22:41.112Z,75.05
2018-03-15T07:23:41.191Z,75.11
2018-03-15T07:24:41.282Z,75.11
2018-03-15T07:25:41.378Z,75.78
2018-03-15T07:26:41.464Z,75.96
2018-03-15T07:27:41.569Z,75.68
2018-03-15T07:28:41.662Z,76.54
2018-03-15T07:29:41.754Z,76.34
2018-03-15T07:30:41.845Z,75.87
2018-03-15T07:31:41.939Z,76.44
2018-03-15T07:32:42.029Z,76.82
2018-03-15T07:33:42.124Z,76.44
2018-03-15T07:34:42.213Z,76.54
2018-03-15T07:35:42.306Z,76.63
2018-03-15T07:36:42.394Z,76.82
2018-03-15T07:37:42.488Z,76.44
2018-03-15T07:38:42.577Z,77.29
2018-03-15T07:39:42.669Z,76.73
2018-03-15T07:40:42.761Z,76.63
2018-03-15T07:41:42.853Z,76.06
2018-03-15T07:42:42.942Z,76.06
2018-03-15T07:43:43.030Z,76.15
2018-03-15T07:44:43.121Z,75.68
2018-03-15T07:45:43.224Z,75.87
2018-03-15T07:46:43.315Z,75.96
2018-03-15T07:47:43.406Z,75.78
2018-03-15T07:48:43.494Z,75.68
2018-03-15T07:49:43.589Z,75.59
2018-03-15T07:50:43.678Z,75.21
2018-03-15T07:51:43.770Z,74.83
2018-03-15T07:52:43.857Z,74.73
2018-03-15T07:53:43.949Z,75.02
2018-03-15T07:54:44.038Z,75.59
2018-03-15T07:55:44.132Z,75.31
2018-03-15T07:56:44.221Z,75.49
2018-03-15T07:57:44.311Z,75.96
2018-03-15T07:58:44.404Z,75.72
2018-03-15T07:59:44.492Z,75.24
2018-03-15T08:00:44.586Z,75.24
2018-03-15T08:01:44.680Z,74.87
2018-03-15T08:02:44.765Z,74.87
2018-03-15T08:03:44.860Z,74.58
2018-03-15T08:04:44.955Z,74.68
2018-03-15T08:05:45.045Z,74.49
2018-03-15T08:06:45.134Z,73.82
2018-03-15T08:07:45.225Z,73.35
2018-03-15T08:08:45.316Z,73.35
2018-03-15T08:09:45.410Z,73.38
2018-03-15T08:10:45.504Z,73.19
2018-03-15T08:11:45.586Z,72.81
2018-03-15T08:12:45.675Z,72.34
2018-03-15T08:13:45.767Z,72.72
2018-03-15T08:14:45.862Z,72.81
2018-03-15T08:15:45.945Z,71.67
2018-03-15T08:16:46.039Z,71.58
2018-03-15T08:17:46.136Z,70.92
2018-03-15T08:18:46.226Z,71.11
2018-03-15T08:19:46.315Z,71.39
2018-03-15T08:20:46.409Z,71.77
2018-03-15T08:21:46.508Z,71.58
2018-03-15T08:22:46.594Z,70.82
2018-03-15T08:23:46.687Z,71.39
2018-03-15T08:24:46.777Z,70.73
2018-03-15T08:25:46.869Z,70.06
2018-03-15T08:26:46.962Z,69.87
2018-03-15T08:27:47.055Z,70.15
2018-03-15T08:28:47.151Z,70.54
2018-03-15T08:29:47.245Z,69.87
2018-03-15T08:30:47.327Z,70.44
2018-03-15T08:31:47.432Z,70.00
2018-03-15T08:32:47.524Z,69.71
2018-03-15T08:33:47.616Z,69.71
2018-03-15T08:34:47.711Z,69.43
2018-03-15T08:35:47.808Z,68.86
2018-03-15T08:36:47.892Z,68.29
2018-03-15T08:37:47.986Z,68.58
2018-03-15T08:38:48.120Z,68.86
2018-03-15T08:39:48.175Z,69.05
2018-03-15T08:40:48.265Z,68.01
2018-03-15T08:41:48.356Z,68.19
2018-03-15T08:42:48.450Z,67.82
2018-03-15T08:43:48.532Z,67.06
2018-03-15T08:44:48.622Z,66.87
2018-03-15T08:45:48.710Z,67.06
2018-03-15T08:46:48.806Z,66.77
2018-03-15T08:47:48.904Z,66.58
2018-03-15T08:48:49.001Z,66.39
2018-03-15T08:49:49.111Z,66.67
2018-03-15T08:50:49.205Z,67.63
2018-03-15T08:51:49.295Z,67.38
2018-03-15T08:52:49.389Z,67.25
2018-03-15T08:53:49.480Z,66.24
2018-03-15T08:54:49.569Z,66.24
2018-03-15T08:55:49.667Z,65.86
2018-03-15T08:56:49.749Z,66.14
2018-03-15T08:57:49.837Z,65.95
2018-03-15T08:58:49.929Z,65.76
2018-03-15T08:59:50.018Z,65.76
2018-03-15T09:00:50.108Z,64.90
2018-03-15T09:01:50.204Z,64.43
2018-03-15T09:02:50.296Z,64.24
2018-03-15T09:03:50.388Z,64.81
2018-03-15T09:04:50.529Z,63.95
2018-03-15T09:05:50.575Z,64.43
2018-03-15T09:06:50.667Z,64.75
2018-03-15T09:07:50.760Z,64.46
2018-03-15T09:08:50.909Z,64.27
2018-03-15T09:09:50.942Z,64.08
2018-03-15T09:10:51.036Z,63.99
2018-03-15T09:11:51.130Z,63.57
2018-03-15T09:12:51.225Z,63.13
2018-03-15T09:13:51.317Z,63.13
2018-03-15T09:14:51.412Z,63.42
2018-03-15T09:15:51.510Z,63.89
2018-03-15T09:16:51.599Z,63.32
2018-03-15T09:17:51.690Z,63.60
2018-03-15T09:18:51.782Z,64.08
2018-03-15T09:19:51.876Z,63.60
2018-03-15T09:20:51.968Z,62.85
2018-03-15T09:21:52.076Z,62.46
2018-03-15T09:22:52.155Z,62.46
2018-03-15T09:23:52.236Z,62.56
2018-03-15T09:24:52.333Z,62.94
2018-03-15T09:25:52.422Z,63.04
2018-03-15T09:26:52.516Z,62.75
2018-03-15T09:27:52.611Z,62.56
2018-03-15T09:28:52.719Z,62.40
2018-03-15T09:29:52.791Z,61.42
2018-03-15T09:30:52.887Z,61.90
2018-03-15T09:31:52.980Z,61.61
2018-03-15T09:32:53.072Z,61.71
2018-03-15T09:33:53.162Z,61.80
2018-03-15T09:34:53.328Z,61.71
2018-03-15T09:35:53.367Z,61.71
2018-03-15T09:36:53.465Z,62.46
2018-03-15T09:37:53.558Z,61.80
2018-03-15T09:38:53.649Z,60.97
2018-03-15T09:39:53.744Z,61.16
2018-03-15T09:40:53.834Z,61.35
2018-03-15T09:41:53.929Z,60.97
2018-03-15T09:42:54.020Z,61.26
2018-03-15T09:43:54.118Z,61.26
2018-03-15T09:44:54.211Z,61.16
2018-03-15T09:45:54.346Z,61.19
2018-03-15T09:46:54.398Z,60.21
2018-03-15T09:47:54.495Z,59.48
2018-03-15T09:48:54.596Z,59.10
2018-03-15T09:49:54.693Z,59.77
2018-03-15T09:50:54.786Z,60.05
2018-03-15T09:51:54.877Z,61.07
2018-03-15T09:52:54.975Z,60.05
2018-03-15T09:53:55.070Z,59.20
2018-03-15T09:54:55.164Z,58.31
2018-03-15T09:55:55.271Z,58.44
2018-03-15T09:56:55.347Z,58.88
2018-03-15T09:57:55.439Z,59.29
2018-03-15T09:58:55.535Z,59.10
2018-03-15T09:59:55.627Z,58.72
2018-03-15T10:00:55.723Z,57.67
2018-03-15T10:01:55.815Z,57.20
2018-03-15T10:02:55.910Z,56.72
2018-03-15T10:03:56.002Z,57.01
2018-03-15T10:04:56.098Z,57.48
2018-03-15T10:05:56.193Z,56.63
2018-03-15T10:06:56.284Z,55.99
2018-03-15T10:07:56.384Z,55.90
2018-03-15T10:08:56.487Z,55.99
2018-03-15T10:09:56.571Z,55.70
2018-03-15T10:10:56.664Z,56.18
2018-03-15T10:11:56.759Z,56.18
2018-03-15T10:12:56.856Z,55.80
2018-03-15T10:13:56.953Z,56.09
2018-03-15T10:14:57.043Z,55.13
2018-03-15T10:15:57.138Z,54.66
2018-03-15T10:16:57.236Z,56.09
2018-03-15T10:17:57.332Z,55.80
2018-03-15T10:18:57.425Z,55.70
2018-03-15T10:19:57.516Z,55.32
2018-03-15T10:20:57.608Z,56.09
2018-03-15T10:21:57.704Z,56.09
2018-03-15T10:22:57.802Z,56.18
2018-03-15T10:23:57.892Z,56.37
2018-03-15T10:24:57.992Z,58.18
2018-03-15T10:25:58.083Z,58.84
2018-03-15T10:26:58.174Z,59.67
2018-03-15T10:27:58.269Z,59.48
2018-03-15T10:28:58.366Z,59.39
2018-03-15T10:29:58.491Z,59.42
2018-03-15T10:30:58.618Z,59.51
2018-03-15T10:31:58.646Z,61.48
2018-03-15T10:32:58.741Z,61.58
2018-03-15T10:33:58.859Z,61.48
2018-03-15T10:34:58.955Z,61.58
2018-03-15T10:35:59.045Z,61.51
2018-03-15T10:36:59.142Z,62.53
2018-03-15T10:37:59.239Z,61.80
2018-03-15T10:38:59.331Z,61.42
2018-03-15T10:39:59.429Z,61.04
2018-03-15T10:40:59.521Z,61.25
2018-03-15T10:41:59.620Z,60.56
2018-03-15T10:42:59.711Z,60.08
2018-03-15T10:43:59.805Z,59.16
2018-03-15T10:44:59.901Z,57.89
2018-03-15T10:45:59.995Z,57.89
2018-03-15T10:47:00.089Z,58.18
2018-03-15T10:48:00.221Z,57.80
2018-03-15T10:49:00.281Z,56.65
2018-03-15T10:50:00.375Z,57.73
2018-03-15T10:51:00.474Z,57.26
2018-03-15T10:52:00.567Z,57.82
2018-03-15T10:53:00.667Z,56.11
2018-03-15T10:54:00.761Z,56.68
2018-03-15T10:55:00.856Z,56.30
2018-03-15T10:56:00.947Z,57.07
2018-03-15T10:57:01.041Z,57.92
2018-03-15T10:58:01.135Z,57.92
2018-03-15T10:59:01.235Z,59.26
2018-03-15T11:00:01.375Z,58.28
2018-03-15T11:01:01.425Z,58.18
2018-03-15T11:02:01.511Z,58.75
2018-03-15T11:03:01.611Z,59.16
2018-03-15T11:04:01.700Z,58.40
2018-03-15T11:05:01.797Z,57.73
2018-03-15T11:06:01.893Z,57.54
2018-03-15T11:07:02.003Z,57.92
2018-03-15T11:08:02.097Z,57.73
2018-03-15T11:09:02.193Z,57.99
2018-03-15T11:10:02.288Z,57.73
2018-03-15T11:11:02.404Z,59.13
2018-03-15T11:12:02.510Z,59.13
2018-03-15T11:13:02.597Z,59.13
2018-03-15T11:14:02.712Z,58.75
2018-03-15T11:15:02.810Z,58.28
2018-03-15T11:16:02.903Z,58.75
2018-03-15T11:17:03.003Z,59.42
2018-03-15T11:18:03.112Z,59.74
2018-03-15T11:19:03.201Z,59.42
2018-03-15T11:20:03.300Z,58.87
2018-03-15T11:21:03.393Z,59.06
2018-03-15T11:22:03.496Z,59.06
2018-03-15T11:23:03.593Z,58.87
2018-03-15T11:24:03.761Z,58.78
2018-03-15T11:25:03.785Z,58.78
2018-03-15T11:26:04.453Z,58.40
2018-03-15T11:27:03.959Z,59.06
2018-03-15T11:28:04.085Z,59.54
2018-03-15T11:29:04.157Z,59.54
2018-03-15T11:30:04.256Z,58.87
2018-03-15T11:31:04.357Z,59.64
2018-03-15T11:32:04.454Z,59.26
2018-03-15T11:33:04.550Z,58.78
2018-03-15T11:34:04.651Z,58.40
2018-03-15T11:35:04.748Z,58.78
2018-03-15T11:36:05.528Z,58.78
2018-03-15T11:37:05.001Z,58.72
2018-03-15T11:38:05.102Z,58.14
2018-03-15T11:39:05.217Z,57.76
2018-03-15T11:40:05.302Z,57.64
2018-03-15T11:41:05.394Z,57.48
2018-03-15T11:42:05.485Z,57.48
2018-03-15T11:43:05.582Z,57.28
2018-03-15T11:44:05.679Z,57.28
2018-03-15T11:45:05.779Z,57.76
2018-03-15T11:46:05.891Z,58.14
2018-03-15T11:47:05.993Z,57.57
2018-03-15T11:48:06.090Z,56.62
2018-03-15T11:49:06.191Z,55.95
2018-03-15T11:50:06.301Z,55.85
2018-03-15T11:51:06.400Z,55.98
2018-03-15T11:52:06.508Z,55.50
2018-03-15T11:53:06.598Z,55.31
2018-03-15T11:54:06.696Z,55.31
2018-03-15T11:55:06.791Z,56.24
2018-03-15T11:56:06.892Z,55.95
2018-03-15T11:57:06.986Z,56.14
2018-03-15T11:58:07.083Z,56.71
2018-03-15T11:59:07.177Z,57.00
2018-03-15T12:00:07.289Z,56.43
2018-03-15T12:01:07.376Z,56.14
2018-03-15T12:02:07.487Z,56.33
2018-03-15T12:03:07.581Z,56.81
2018-03-15T12:04:07.680Z,56.14
2018-03-15T12:05:07.779Z,56.52
2018-03-15T12:06:07.881Z,57.19
2018-03-15T12:07:07.976Z,56.43
2018-03-15T12:08:08.072Z,55.57
2018-03-15T12:09:08.170Z,55.95
2018-03-15T12:10:08.265Z,56.43
2018-03-15T12:11:08.354Z,57.28
2018-03-15T12:12:08.451Z,56.78
2018-03-15T12:13:08.548Z,56.14
2018-03-15T12:14:08.644Z,56.24
2018-03-15T12:15:08.738Z,56.81
2018-03-15T12:16:08.828Z,55.85
2018-03-15T12:17:08.950Z,55.66
2018-03-15T12:18:09.018Z,56.33
2018-03-15T12:19:09.118Z,56.07
2018-03-15T12:20:09.213Z,55.88
2018-03-15T12:21:09.310Z,55.88
2018-03-15T12:22:09.414Z,56.33
2018-03-15T12:23:09.509Z,55.57
2018-03-15T12:24:09.606Z,55.76
2018-03-15T12:25:09.703Z,55.57
2018-03-15T12:26:09.805Z,55.19
2018-03-15T12:27:09.901Z,56.04
2018-03-15T12:28:09.994Z,56.24
2018-03-15T12:29:10.092Z,55.85
2018-03-15T12:30:10.184Z,55.95
2018-03-15T12:31:10.284Z,55.95
2018-03-15T12:32:10.377Z,56.33
2018-03-15T12:33:10.472Z,56.52
2018-03-15T12:34:11.534Z,56.33
2018-03-15T12:35:10.630Z,56.14
2018-03-15T12:36:10.727Z,56.33
2018-03-15T12:37:10.824Z,55.85
2018-03-15T12:38:10.923Z,56.04
2018-03-15T12:39:11.021Z,56.36
2018-03-15T12:40:11.117Z,55.41
2018-03-15T12:41:11.217Z,55.28
2018-03-15T12:42:11.313Z,55.41
2018-03-15T12:43:11.406Z,55.60
2018-03-15T12:44:11.502Z,55.02
2018-03-15T12:45:11.592Z,55.41
2018-03-15T12:46:11.690Z,55.21
2018-03-15T12:47:11.779Z,55.12
2018-03-15T12:48:11.876Z,54.07
2018-03-15T12:49:11.982Z,54.48
2018-03-15T12:50:12.077Z,53.91
2018-03-15T12:51:12.174Z,54.00
2018-03-15T12:52:12.266Z,54.00
2018-03-15T12:53:12.364Z,53.81